• Join FlightAware (Why Join?)
  • Login
  • US Flag 
03:41AM EDT


 

Airport Tracker/Info


-or-


 

Live Flight TrackerFlight Track Log ✈ SKW5187 ✈ 10-Jul-2013 ✈ KAUS - KIAH

Flight Track Log - Related Links

Times and Time Zones

All times are in EDT time to prevent confusion due to time zone crossing. See the SKW5187 flight status page for this flight to view local times or setup timezone preferences in your user account.

Time Position Orientation Groundspeed Altitude Reporting Facility
EDT Latitude Longitude Course Direction KTS MPH feet Rate Location/Type
06:15PM 30.1028 -97.6358 90° East 232 267 23,000  Level Houston Center
06:16PM 30.3511 -97.5437 30° Northeast  Level FlightAware Approximate
06:16PM 30.0844 -97.5661 107° East 226 260 23,000  Level Houston Center
06:17PM 30.3636 -97.4769 95° East  Level FlightAware Approximate
06:17PM 30.0642 -97.4889 107° East 244 281 23,000  Level Houston Center
06:18PM 30.3577 -97.3997 95° East  Level FlightAware Approximate
06:18PM 30.1111 -97.4031 58° Northeast 282 325 23,000  Level Houston Center
06:19PM 30.3517 -97.3226 95° East  Level FlightAware Approximate
06:19PM 30.1706 -97.3267 48° Northeast 309 356 11,900  Level Houston Center
06:20PM 30.3500 -97.2453 90° East  Level FlightAware Approximate
06:20PM 30.2419 -97.2306 49° Northeast 333 383 12,400  Level Houston Center
06:21PM 30.3017 -97.1492 50° Northeast 331 381 14,500 1,860 Climbing Houston Center
06:22PM 30.3650 -97.0639 49° Northeast 345 397 16,300 1,680 Climbing Houston Center
06:23PM 30.4169 -96.9658 58° Northeast 374 430 18,000 1,560 Climbing Houston Center
06:24PM 30.4106 -96.8461 94° East 374 430 19,600 1,440 Climbing Houston Center
06:25PM 30.4144 -96.7256 88° East 373 429 21,000 660 Climbing Houston Center
06:26PM 30.4200 -96.5969 87° East 392 451 21,000 -420 Level Houston Center
06:27PM 30.4281 -96.4422 87° East 407 468 20,200 -1,800 Descending Houston Center
06:28PM 30.4328 -96.3108 88° East 400 460 17,400 -2,640 Descending Houston Center
06:29PM 30.4381 -96.2014 87° East 379 436 15,100 -2,640 Descending Houston Center
06:30PM 30.4425 -96.0797 88° East 362 417 12,300 -2,400 Descending Houston Center
06:31PM 30.4489 -95.9581 86° East 345 397 10,000 -1,500 Descending Houston Center
06:32PM 30.4414 -95.8717 96° East 280 322 9,300 -1,620 Descending Houston Center
06:33PM 30.3689 -95.8342 156° South 279 321 6,900 -1,680 Descending Houston Center
06:34PM 30.2992 -95.8058 161° South 272 313 6,000 -420 Descending Houston Center
06:36PM 30.2292 -95.7589 150° Southeast 250 288 6,000 -240 Level Houston Center
06:36PM 30.1794 -95.7086 139° Southeast 259 298 5,600 -900 Descending Houston Center
06:37PM 30.1239 -95.6525 139° Southeast 251 289 4,300 -1,260 Descending Houston Center
06:38PM 30.0756 -95.6050 140° Southeast 244 281 3,100 -660 Descending Houston Center
06:39PM 30.0269 -95.5528 137° Southeast 217 250 3,100  Level Houston Center